Time;durP1;ratioP1;P1;durP2;ratioP2;P2;SDS_P1;SDS_P2;PMS_P1;PMS_P2;Temp;Humidity;BMP_temperature;BMP_pressure;BME280_temperature;BME280_humidity;BME280_pressure;Samples;Min_cycle;Max_cycle;Signal;HPM_P1;HPM_P2
2023/12/08 00:00:49;;;;;;;5.38;4.25;;;0.40;99.90;;;;;;4999142;28;20223;-72
2023/12/08 00:03:16;;;;;;;6.60;4.63;;;0.40;99.90;;;;;;5000941;28;20214;-72
2023/12/08 00:05:42;;;;;;;5.13;3.35;;;0.50;99.90;;;;;;4999227;28;20203;-72
2023/12/08 00:08:09;;;;;;;7.30;4.85;;;0.50;99.90;;;;;;5000648;28;20210;-72
2023/12/08 00:10:37;;;;;;;5.03;3.38;;;0.50;99.90;;;;;;5004858;28;20656;-72
2023/12/08 00:13:04;;;;;;;3.97;3.45;;;0.50;99.90;;;;;;5000289;28;20207;-72
2023/12/08 04:31:24;;;;;;;3.60;2.63;;;1.50;99.90;;;;;;5724277;22;20286;-93
2023/12/08 04:33:54;;;;;;;2.95;2.20;;;1.50;99.90;;;;;;5019713;28;20206;-92
2023/12/08 04:36:21;;;;;;;4.90;3.53;;;1.50;99.90;;;;;;5002233;28;20206;-92
2023/12/08 04:38:49;;;;;;;4.38;2.70;;;1.60;99.90;;;;;;5006622;28;20206;-91
2023/12/08 04:41:16;;;;;;;3.05;2.72;;;1.60;99.90;;;;;;5015153;28;20254;-95
2023/12/08 04:43:43;;;;;;;3.80;2.25;;;1.70;99.90;;;;;;5025081;28;20305;-93
2023/12/08 04:49:55;;;;;;;3.47;2.15;;;1.60;99.90;;;;;;4974462;28;20251;-93
2023/12/08 04:52:22;;;;;;;3.40;2.90;;;1.60;99.90;;;;;;5041090;22;20253;-71
2023/12/08 04:54:49;;;;;;;3.47;2.42;;;1.60;99.90;;;;;;5033073;28;20201;-73
2023/12/08 04:57:16;;;;;;;4.60;2.25;;;1.70;99.90;;;;;;5032923;28;20213;-71
2023/12/08 04:59:42;;;;;;;5.07;2.90;;;1.70;99.90;;;;;;5033111;28;20213;-71
2023/12/08 05:02:10;;;;;;;3.30;2.67;;;1.70;99.90;;;;;;5017282;28;20226;-71
2023/12/08 05:04:37;;;;;;;5.60;3.40;;;1.60;99.90;;;;;;5013509;28;20682;-71
2023/12/08 05:07:04;;;;;;;3.97;3.58;;;1.50;99.90;;;;;;5013046;28;20217;-71
2023/12/08 05:09:31;;;;;;;5.72;2.95;;;1.50;99.90;;;;;;5012995;28;20202;-71
2023/12/08 05:11:57;;;;;;;3.25;2.65;;;1.40;99.90;;;;;;5013017;28;20317;-71
2023/12/08 05:14:24;;;;;;;4.25;2.97;;;1.40;99.90;;;;;;5013507;28;20604;-71
2023/12/08 05:16:51;;;;;;;2.80;1.95;;;1.40;99.90;;;;;;5012843;28;20213;-71
2023/12/08 05:19:19;;;;;;;6.60;2.53;;;1.40;99.90;;;;;;5012849;28;20583;-71
2023/12/08 05:21:46;;;;;;;3.63;3.00;;;1.40;99.90;;;;;;5012957;28;20237;-75
2023/12/08 05:24:12;;;;;;;2.42;1.98;;;1.40;99.90;;;;;;5013978;28;20226;-73
2023/12/08 05:26:39;;;;;;;4.28;3.20;;;1.40;99.90;;;;;;5015469;28;20678;-73
2023/12/08 05:29:05;;;;;;;3.40;2.88;;;1.50;99.90;;;;;;5012645;28;20198;-73
2023/12/08 05:31:32;;;;;;;6.10;2.72;;;1.50;99.90;;;;;;5013224;28;20230;-72
2023/12/08 05:33:59;;;;;;;2.40;2.20;;;1.50;99.90;;;;;;5012733;28;20674;-73
2023/12/08 05:36:27;;;;;;;2.28;2.08;;;1.60;99.90;;;;;;5013066;28;20206;-74
2023/12/08 05:38:54;;;;;;;5.47;2.80;;;1.60;99.90;;;;;;5012328;28;20675;-73
2023/12/08 05:41:20;;;;;;;3.63;3.33;;;1.60;99.90;;;;;;5021110;28;20596;-73
2023/12/08 05:43:47;;;;;;;3.38;2.40;;;1.60;99.90;;;;;;5012617;28;20206;-73
2023/12/08 05:46:14;;;;;;;4.22;2.80;;;1.60;99.90;;;;;;5012580;28;20301;-73
2023/12/08 05:48:41;;;;;;;3.25;2.70;;;1.70;99.90;;;;;;5012416;28;20238;-73
2023/12/08 05:51:08;;;;;;;5.55;3.20;;;1.60;99.90;;;;;;5010285;28;20226;-73
2023/12/08 05:53:36;;;;;;;3.25;2.95;;;1.70;99.90;;;;;;5012725;28;20621;-73
2023/12/08 05:56:03;;;;;;;3.92;3.00;;;1.70;99.90;;;;;;5012065;28;20398;-73
2023/12/08 05:58:30;;;;;;;2.97;2.67;;;1.80;99.90;;;;;;5012190;28;20241;-73
2023/12/08 06:00:57;;;;;;;6.55;3.10;;;1.80;99.90;;;;;;5011934;28;20238;-73
2023/12/08 06:03:24;;;;;;;4.03;2.22;;;1.80;99.90;;;;;;5012580;28;20203;-72
2023/12/08 06:05:50;;;;;;;4.15;2.92;;;1.80;99.90;;;;;;5012002;28;20675;-74
2023/12/08 06:08:17;;;;;;;6.13;2.63;;;1.80;99.90;;;;;;5011920;28;20206;-74
2023/12/08 06:10:45;;;;;;;4.07;3.08;;;1.80;99.90;;;;;;5012260;28;20234;-75
2023/12/08 06:13:13;;;;;;;5.50;3.22;;;1.80;99.90;;;;;;5012147;28;20206;-73
2023/12/08 06:15:40;;;;;;;2.67;2.38;;;1.90;99.90;;;;;;5012042;28;20257;-73
2023/12/08 06:18:06;;;;;;;10.50;3.50;;;1.90;99.90;;;;;;5011386;28;20203;-73
2023/12/08 06:20:33;;;;;;;4.13;2.70;;;1.90;99.90;;;;;;5012132;28;20257;-73
2023/12/08 06:23:00;;;;;;;2.92;2.28;;;1.90;99.90;;;;;;5011884;28;20213;-73
2023/12/08 06:25:27;;;;;;;3.10;2.80;;;1.90;99.90;;;;;;5012093;28;20229;-73
2023/12/08 06:27:55;;;;;;;3.28;2.97;;;1.90;99.90;;;;;;5011382;28;20206;-73
2023/12/08 06:30:22;;;;;;;3.97;2.50;;;2.00;99.90;;;;;;5005600;28;20202;-73
2023/12/08 06:32:49;;;;;;;5.45;3.95;;;2.00;99.90;;;;;;5011692;28;20206;-73
2023/12/08 06:35:15;;;;;;;4.80;3.35;;;2.00;99.90;;;;;;5011908;28;20210;-73
2023/12/08 06:37:43;;;;;;;3.55;2.20;;;1.90;99.90;;;;;;5011419;28;20252;-73
2023/12/08 06:40:11;;;;;;;4.72;2.50;;;1.90;99.90;;;;;;5011436;28;20200;-73
2023/12/08 06:42:38;;;;;;;6.22;3.38;;;1.90;99.90;;;;;;5011972;28;20218;-73
2023/12/08 06:45:08;;;;;;;3.50;2.85;;;2.00;99.90;;;;;;5011562;28;20230;-73
2023/12/08 06:47:35;;;;;;;4.68;2.88;;;1.90;99.90;;;;;;5011291;28;20226;-73
2023/12/08 06:50:01;;;;;;;19.48;2.28;;;1.90;99.90;;;;;;5011239;28;20218;-73
2023/12/08 06:52:28;;;;;;;3.97;2.22;;;1.90;99.90;;;;;;5011565;28;20277;-73
2023/12/08 06:54:55;;;;;;;4.20;2.63;;;1.80;99.90;;;;;;5011385;28;20206;-73
2023/12/08 06:57:21;;;;;;;3.65;2.88;;;1.80;99.90;;;;;;5004529;28;20199;-73
2023/12/08 06:59:48;;;;;;;3.35;3.05;;;1.80;99.90;;;;;;5011799;28;20207;-73
2023/12/08 07:02:16;;;;;;;3.00;2.80;;;1.80;99.90;;;;;;5010638;28;20231;-73
2023/12/08 07:04:43;;;;;;;3.53;2.50;;;1.80;99.90;;;;;;5011586;28;20222;-73
2023/12/08 07:07:09;;;;;;;5.07;3.28;;;1.80;99.90;;;;;;5011009;28;20214;-73
2023/12/08 07:09:36;;;;;;;3.88;3.55;;;1.70;99.90;;;;;;5011092;28;20214;-73
2023/12/08 07:12:03;;;;;;;5.97;2.67;;;1.80;99.90;;;;;;5026718;28;20221;-75
2023/12/08 07:14:30;;;;;;;2.95;2.55;;;1.80;99.90;;;;;;5025231;28;20210;-73
2023/12/08 07:16:57;;;;;;;5.20;3.25;;;1.80;99.90;;;;;;5010688;28;20210;-73
2023/12/08 07:19:25;;;;;;;6.70;2.95;;;1.90;99.90;;;;;;5010937;28;20206;-72
2023/12/08 07:21:51;;;;;;;4.25;3.40;;;1.90;99.90;;;;;;5010990;28;20230;-72
2023/12/08 07:24:18;;;;;;;3.33;2.40;;;2.00;99.90;;;;;;5011167;28;20209;-73
2023/12/08 07:26:45;;;;;;;5.30;2.83;;;2.00;99.90;;;;;;5010965;28;20594;-73
2023/12/08 07:29:11;;;;;;;1.98;1.88;;;2.00;99.90;;;;;;5010962;28;20566;-73
2023/12/08 07:31:38;;;;;;;6.75;3.03;;;2.10;99.90;;;;;;5011287;28;20230;-73
2023/12/08 07:34:05;;;;;;;3.25;2.95;;;2.10;99.90;;;;;;5011772;28;20674;-73
2023/12/08 07:36:33;;;;;;;7.65;2.55;;;2.10;99.90;;;;;;5011078;28;20618;-73
2023/12/08 07:39:00;;;;;;;2.72;2.50;;;2.10;99.90;;;;;;5010379;28;20218;-73
2023/12/08 07:41:27;;;;;;;5.28;4.13;;;2.20;99.90;;;;;;5011145;28;20695;-73
2023/12/08 07:43:55;;;;;;;2.45;2.25;;;2.20;99.90;;;;;;5011000;28;20206;-73
2023/12/08 07:46:23;;;;;;;5.70;2.85;;;2.20;99.90;;;;;;5003257;28;20247;-73
2023/12/08 07:48:50;;;;;;;3.65;2.50;;;2.30;99.90;;;;;;5010780;28;20301;-73
2023/12/08 07:51:17;;;;;;;4.88;2.85;;;2.30;99.90;;;;;;5010586;28;20234;-73
2023/12/08 07:53:45;;;;;;;3.47;3.17;;;2.30;99.90;;;;;;5011029;28;20249;-73
2023/12/08 07:56:13;;;;;;;2.92;2.63;;;2.40;99.90;;;;;;5010393;28;20206;-72
2023/12/08 07:58:40;;;;;;;5.30;2.47;;;2.50;99.90;;;;;;5010797;28;20238;-72
2023/12/08 08:01:07;;;;;;;3.90;2.58;;;2.50;99.90;;;;;;5010566;28;20253;-73
2023/12/08 08:03:33;;;;;;;2.88;2.55;;;2.60;99.90;;;;;;5010867;28;20230;-73
2023/12/08 08:06:00;;;;;;;4.50;1.92;;;2.70;99.90;;;;;;5010252;28;20234;-73
2023/12/08 08:08:27;;;;;;;3.25;2.10;;;2.80;99.90;;;;;;5010703;28;20207;-73
2023/12/08 08:10:55;;;;;;;2.90;2.70;;;2.90;99.90;;;;;;5010800;28;20230;-73
2023/12/08 08:13:22;;;;;;;2.35;2.10;;;3.00;99.90;;;;;;5012737;28;20691;-73
2023/12/08 08:15:49;;;;;;;1.90;1.80;;;3.10;99.90;;;;;;5014518;28;20217;-73
2023/12/08 08:18:16;;;;;;;2.47;1.75;;;3.10;99.90;;;;;;5013730;28;20213;-73
2023/12/08 08:20:42;;;;;;;3.83;2.38;;;3.20;99.90;;;;;;5014492;28;20231;-73
2023/12/08 08:23:09;;;;;;;3.75;2.33;;;3.30;99.90;;;;;;5014123;28;20203;-74
2023/12/08 08:25:36;;;;;;;2.70;2.50;;;3.40;99.90;;;;;;5014295;28;20253;-74
2023/12/08 08:28:04;;;;;;;11.52;2.72;;;3.40;99.90;;;;;;5013937;28;20226;-74
2023/12/08 08:30:31;;;;;;;4.50;3.47;;;3.50;99.90;;;;;;5014660;28;20261;-73
2023/12/08 08:32:58;;;;;;;3.75;2.45;;;3.60;99.90;;;;;;5014389;28;20654;-74
2023/12/08 08:35:24;;;;;;;3.40;2.88;;;3.60;99.90;;;;;;5014643;28;20660;-74
2023/12/08 08:37:51;;;;;;;3.00;2.70;;;3.60;99.90;;;;;;5014351;28;20573;-74
2023/12/08 08:40:18;;;;;;;2.67;2.08;;;3.70;99.90;;;;;;5014129;28;20694;-74
2023/12/08 08:42:44;;;;;;;2.55;2.30;;;3.70;99.90;;;;;;5014711;28;20596;-74
2023/12/08 08:45:12;;;;;;;4.20;3.00;;;3.70;99.90;;;;;;5013602;28;20642;-74
2023/12/08 08:47:39;;;;;;;2.78;2.53;;;3.80;99.90;;;;;;5013645;28;20211;-74
2023/12/08 08:50:07;;;;;;;3.20;2.20;;;3.80;99.90;;;;;;5013827;28;20207;-74
2023/12/08 08:52:35;;;;;;;5.97;3.63;;;3.80;99.90;;;;;;5013949;28;20229;-73
2023/12/08 08:55:02;;;;;;;3.00;2.05;;;3.90;99.90;;;;;;5013998;28;20235;-73
2023/12/08 08:57:29;;;;;;;2.38;2.05;;;3.90;99.90;;;;;;5014819;28;20687;-74
2023/12/08 08:59:55;;;;;;;3.45;2.30;;;4.00;99.90;;;;;;5015246;28;20212;-74
2023/12/08 09:02:23;;;;;;;3.67;2.78;;;4.00;99.90;;;;;;5015085;28;20230;-74
2023/12/08 09:04:50;;;;;;;2.90;2.58;;;4.10;99.90;;;;;;5015184;28;20215;-74
2023/12/08 09:07:17;;;;;;;3.55;2.58;;;4.10;99.90;;;;;;5014153;28;20232;-73
2023/12/08 09:09:44;;;;;;;3.03;2.75;;;4.20;99.90;;;;;;5014712;28;20209;-72
2023/12/08 09:12:10;;;;;;;2.72;2.10;;;4.20;99.90;;;;;;5014296;28;20228;-72
2023/12/08 09:14:38;;;;;;;4.07;2.95;;;4.30;99.90;;;;;;5014238;28;20587;-74
2023/12/08 09:17:05;;;;;;;3.88;2.65;;;4.30;99.90;;;;;;5013648;28;20236;-74
2023/12/08 09:19:33;;;;;;;2.15;1.92;;;4.40;99.90;;;;;;5014206;28;20216;-74
2023/12/08 09:22:00;;;;;;;3.42;3.13;;;4.40;99.90;;;;;;5014032;28;20233;-74
2023/12/08 09:24:26;;;;;;;2.88;2.40;;;4.40;99.90;;;;;;5013232;28;20209;-74
2023/12/08 09:26:53;;;;;;;4.75;3.35;;;4.50;99.90;;;;;;5013510;28;20229;-74
2023/12/08 09:29:20;;;;;;;3.38;2.28;;;4.50;99.90;;;;;;5013138;28;20205;-74
2023/12/08 09:31:47;;;;;;;2.67;1.95;;;4.50;99.90;;;;;;5013730;28;20232;-74
2023/12/08 09:34:14;;;;;;;3.17;2.67;;;4.50;99.90;;;;;;5013235;28;20212;-73
2023/12/08 09:36:42;;;;;;;3.42;2.60;;;4.60;99.90;;;;;;5013500;28;20563;-74
2023/12/08 09:39:09;;;;;;;4.18;2.70;;;4.60;99.90;;;;;;5012884;28;20657;-74
2023/12/08 09:41:38;;;;;;;3.17;2.75;;;4.60;99.90;;;;;;5013569;28;20256;-74
2023/12/08 09:44:11;;;;;;;3.42;2.45;;;4.70;99.90;;;;;;5013088;28;20208;-74
2023/12/08 09:46:38;;;;;;;2.47;2.22;;;4.70;99.90;;;;;;5013213;28;20310;-74
2023/12/08 09:49:08;;;;;;;2.03;1.85;;;4.70;99.90;;;;;;5012563;28;20205;-74
2023/12/08 09:51:34;;;;;;;3.15;1.77;;;4.70;99.90;;;;;;5013056;28;20236;-74
2023/12/08 09:54:03;;;;;;;2.65;1.92;;;4.80;99.90;;;;;;5013014;28;20604;-74
2023/12/08 09:56:31;;;;;;;2.78;2.58;;;4.80;99.90;;;;;;5012942;28;20200;-74
2023/12/08 09:58:59;;;;;;;2.55;2.22;;;4.80;99.90;;;;;;5012843;28;20215;-74
2023/12/08 10:01:26;;;;;;;4.22;2.50;;;4.90;99.90;;;;;;5012496;28;20243;-74
2023/12/08 10:03:52;;;;;;;2.67;1.80;;;4.90;99.90;;;;;;5012983;28;20208;-74
2023/12/08 10:06:20;;;;;;;2.35;2.10;;;4.90;99.90;;;;;;5012161;28;20653;-74
2023/12/08 10:08:47;;;;;;;3.65;2.30;;;4.90;99.90;;;;;;5011827;28;20210;-73
2023/12/08 10:11:15;;;;;;;2.65;1.85;;;4.90;99.90;;;;;;5012018;28;20224;-74
2023/12/08 10:13:43;;;;;;;2.40;2.03;;;5.00;99.90;;;;;;5012568;28;20640;-73
2023/12/08 10:16:10;;;;;;;2.70;1.98;;;5.00;99.90;;;;;;5011894;28;20218;-74
2023/12/08 10:18:37;;;;;;;2.88;1.75;;;5.00;99.90;;;;;;5012406;28;20801;-74
2023/12/08 10:21:15;;;;;;;2.47;1.85;;;5.00;99.90;;;;;;5009512;28;20317;-74
2023/12/08 10:23:43;;;;;;;2.60;2.25;;;5.00;99.90;;;;;;5017188;28;20216;-74
2023/12/08 10:26:12;;;;;;;3.45;2.30;;;5.10;99.90;;;;;;5013139;28;20226;-73
2023/12/08 10:28:42;;;;;;;2.08;1.77;;;5.10;99.90;;;;;;5011731;28;20263;-74
2023/12/08 10:31:10;;;;;;;2.40;1.90;;;5.20;99.90;;;;;;5011682;28;20230;-75
2023/12/08 10:33:37;;;;;;;3.45;2.55;;;5.20;99.90;;;;;;5012719;28;20207;-74
2023/12/08 10:36:05;;;;;;;2.63;2.28;;;5.20;99.90;;;;;;5011855;28;20210;-74
2023/12/08 10:38:32;;;;;;;3.05;1.98;;;5.20;99.90;;;;;;5025510;28;20675;-74
2023/12/08 10:41:01;;;;;;;2.83;2.55;;;5.20;99.90;;;;;;5012626;28;20237;-74
2023/12/08 10:43:32;;;;;;;3.15;1.98;;;5.20;99.90;;;;;;5011733;28;20210;-74
2023/12/08 10:46:03;;;;;;;1.88;1.52;;;5.30;99.90;;;;;;5018462;28;20233;-74
2023/12/08 10:48:30;;;;;;;2.63;2.13;;;5.30;99.90;;;;;;5017991;28;20217;-74
2023/12/08 10:50:59;;;;;;;9.90;1.90;;;5.30;99.90;;;;;;5011655;28;20261;-74
2023/12/08 10:53:27;;;;;;;2.50;2.30;;;5.30;99.90;;;;;;5024598;28;20675;-74
2023/12/08 10:56:01;;;;;;;3.90;2.50;;;5.40;99.90;;;;;;5018417;28;20207;-74
2023/12/08 10:58:29;;;;;;;2.35;2.15;;;5.40;99.90;;;;;;5022800;28;20247;-74
2023/12/08 11:00:58;;;;;;;2.13;1.90;;;5.50;99.90;;;;;;5018359;28;20263;-74
2023/12/08 11:03:32;;;;;;;3.00;2.30;;;5.50;99.90;;;;;;5017943;28;20219;-73
2023/12/08 11:06:09;;;;;;;3.53;2.78;;;5.60;99.90;;;;;;5017394;28;20275;-73
2023/12/08 11:08:36;;;;;;;2.08;1.88;;;5.70;99.90;;;;;;5011161;28;20601;-73
2023/12/08 11:11:06;;;;;;;3.30;1.63;;;5.80;99.90;;;;;;5011447;28;20223;-72
2023/12/08 11:13:37;;;;;;;1.75;1.50;;;5.90;99.90;;;;;;5010832;28;20607;-73
2023/12/08 11:16:19;;;;;;;2.97;2.63;;;5.90;99.90;;;;;;5011230;28;20226;-72
2023/12/08 11:18:48;;;;;;;2.70;2.08;;;5.90;99.90;;;;;;5006752;28;20277;-72
2023/12/08 11:21:14;;;;;;;2.53;1.60;;;5.90;99.90;;;;;;5010902;28;20222;-73
2023/12/08 11:23:42;;;;;;;1.67;1.30;;;5.90;99.90;;;;;;5011375;28;20207;-72
2023/12/08 11:26:23;;;;;;;2.08;1.40;;;6.10;99.90;;;;;;5011062;28;20574;-72
2023/12/08 11:29:03;;;;;;;2.97;2.10;;;6.10;99.90;;;;;;5006089;28;20212;-72
2023/12/08 11:31:40;;;;;;;1.23;1.13;;;6.20;99.90;;;;;;4997233;28;20230;-72
2023/12/08 11:34:14;;;;;;;2.08;1.55;;;6.20;99.90;;;;;;5006886;28;20202;-72
2023/12/08 11:36:44;;;;;;;2.72;2.13;;;6.20;99.90;;;;;;5005127;28;20207;-72
2023/12/08 11:39:42;;;;;;;2.20;2.00;;;6.20;99.90;;;;;;5010428;28;20199;-73
2023/12/08 11:42:10;;;;;;;2.28;1.90;;;6.20;99.90;;;;;;5009034;28;20333;-73
2023/12/08 11:44:38;;;;;;;1.58;1.45;;;6.20;99.90;;;;;;5010851;28;20207;-73
2023/12/08 11:47:06;;;;;;;1.85;1.35;;;6.30;99.90;;;;;;4999263;28;20750;-73
2023/12/08 11:49:36;;;;;;;2.05;1.77;;;6.30;99.90;;;;;;5013917;28;20241;-73
2023/12/08 11:52:12;;;;;;;1.73;1.63;;;6.30;99.90;;;;;;5020388;28;20226;-72
2023/12/08 11:55:06;;;;;;;2.88;2.08;;;6.30;99.90;;;;;;5014488;28;20584;-72
2023/12/08 11:57:34;;;;;;;2.70;1.88;;;6.20;99.90;;;;;;5012401;28;20222;-73
2023/12/08 12:00:01;;;;;;;2.20;1.40;;;6.30;99.90;;;;;;5014826;28;20202;-74
2023/12/08 12:02:29;;;;;;;2.72;2.00;;;6.20;99.90;;;;;;5014562;28;20642;-73
2023/12/08 12:04:57;;;;;;;3.30;1.80;;;6.20;99.90;;;;;;5014788;28;20253;-73
2023/12/08 12:07:24;;;;;;;1.80;1.60;;;6.20;99.90;;;;;;5013816;28;20229;-73
2023/12/08 12:09:54;;;;;;;1.65;1.55;;;6.30;99.90;;;;;;5015442;28;20210;-73
2023/12/08 12:12:25;;;;;;;2.03;1.85;;;6.30;99.90;;;;;;5014749;28;20233;-73
2023/12/08 12:14:56;;;;;;;1.60;1.50;;;6.30;99.90;;;;;;5015872;28;20234;-74
2023/12/08 12:17:24;;;;;;;1.55;1.35;;;6.30;99.90;;;;;;5012120;28;20194;-74
2023/12/08 12:19:52;;;;;;;2.95;2.13;;;6.30;99.90;;;;;;5015170;28;20203;-73
2023/12/08 12:22:20;;;;;;;1.35;1.20;;;6.40;99.90;;;;;;5015223;28;20246;-73
2023/12/08 12:24:47;;;;;;;1.35;1.25;;;6.50;99.90;;;;;;5014349;28;20213;-73
2023/12/08 12:27:14;;;;;;;1.92;1.52;;;6.50;99.90;;;;;;5014102;28;20222;-73
2023/12/08 12:29:41;;;;;;;1.88;1.70;;;6.50;99.90;;;;;;5013695;28;20238;-72
2023/12/08 12:32:08;;;;;;;1.38;1.20;;;6.60;99.90;;;;;;5014312;28;20742;-72
2023/12/08 12:34:35;;;;;;;3.28;1.90;;;6.60;99.90;;;;;;5013991;28;20214;-72
2023/12/08 12:37:02;;;;;;;2.50;2.03;;;6.60;99.90;;;;;;5014284;28;20195;-74
2023/12/08 12:39:30;;;;;;;1.17;1.05;;;6.50;99.90;;;;;;5013377;28;20209;-74
2023/12/08 12:42:00;;;;;;;1.92;1.40;;;6.50;99.90;;;;;;5013871;28;20225;-73
2023/12/08 12:44:39;;;;;;;2.15;1.83;;;6.50;99.90;;;;;;5013289;28;20575;-72
2023/12/08 12:47:06;;;;;;;2.13;1.88;;;6.60;99.90;;;;;;5013689;28;20218;-77
2023/12/08 12:49:32;;;;;;;1.40;1.30;;;6.60;99.90;;;;;;5013069;28;20203;-77
2023/12/08 12:51:59;;;;;;;2.22;2.03;;;6.60;99.90;;;;;;5013916;28;20614;-73
2023/12/08 12:54:34;;;;;;;1.40;1.30;;;6.60;99.90;;;;;;5013971;28;20218;-75
2023/12/08 12:57:01;;;;;;;3.28;1.50;;;6.50;99.90;;;;;;5007212;28;20203;-75
2023/12/08 12:59:32;;;;;;;2.33;1.55;;;6.50;99.90;;;;;;5011885;28;20206;-74
2023/12/08 13:02:03;;;;;;;3.30;1.55;;;6.50;99.90;;;;;;5011780;28;20777;-75
2023/12/08 13:04:40;;;;;;;1.73;1.48;;;6.40;99.90;;;;;;5012969;28;20667;-75
2023/12/08 13:07:14;;;;;;;1.58;1.40;;;6.40;99.90;;;;;;5012702;28;20219;-75
2023/12/08 13:09:42;;;;;;;1.73;1.63;;;6.40;99.90;;;;;;5015565;28;20214;-74
2023/12/08 13:12:12;;;;;;;1.55;1.45;;;6.40;99.90;;;;;;5015317;28;20241;-73
2023/12/08 13:14:40;;;;;;;1.85;1.75;;;6.40;99.90;;;;;;5014349;28;20207;-73
2023/12/08 13:17:07;;;;;;;2.63;2.13;;;6.40;99.90;;;;;;5012361;28;20195;-73
2023/12/08 13:19:34;;;;;;;2.10;1.70;;;6.40;99.90;;;;;;5012623;28;20214;-72
2023/12/08 13:22:01;;;;;;;1.92;1.55;;;6.40;99.90;;;;;;5014157;28;20237;-73
2023/12/08 13:24:28;;;;;;;1.50;1.40;;;6.40;99.90;;;;;;5013084;28;20226;-73
2023/12/08 13:26:57;;;;;;;1.90;1.50;;;6.40;99.90;;;;;;5008991;28;20241;-73
2023/12/08 13:29:24;;;;;;;1.80;1.50;;;6.40;99.90;;;;;;5009246;28;20207;-75
2023/12/08 13:31:51;;;;;;;1.40;1.30;;;6.40;99.90;;;;;;5016601;28;20605;-73
2023/12/08 13:34:19;;;;;;;2.03;1.50;;;6.40;99.90;;;;;;5012388;28;20203;-76
2023/12/08 13:36:46;;;;;;;1.60;1.50;;;6.30;99.90;;;;;;5012890;28;20557;-72
2023/12/08 13:39:13;;;;;;;1.50;1.20;;;6.30;99.90;;;;;;5012859;28;20293;-72
2023/12/08 13:41:41;;;;;;;1.55;1.45;;;6.30;99.90;;;;;;5012687;28;20709;-74
2023/12/08 13:44:10;;;;;;;1.42;1.33;;;6.20;99.90;;;;;;5012975;28;20207;-74
2023/12/08 13:46:37;;;;;;;2.03;1.83;;;6.20;99.90;;;;;;5012071;28;20207;-74
2023/12/08 13:49:04;;;;;;;3.35;2.00;;;6.30;99.90;;;;;;5012241;28;20607;-74
2023/12/08 13:51:36;;;;;;;1.75;1.40;;;6.20;99.90;;;;;;5012523;28;20703;-73
2023/12/08 13:54:03;;;;;;;2.47;1.65;;;6.30;99.90;;;;;;5012923;28;20226;-74
2023/12/08 13:56:30;;;;;;;1.60;1.30;;;6.20;99.90;;;;;;5012050;28;20221;-74
2023/12/08 13:58:56;;;;;;;2.78;1.67;;;6.20;99.90;;;;;;5011825;28;20690;-74
2023/12/08 14:01:25;;;;;;;2.95;1.92;;;6.20;99.90;;;;;;5012473;28;20567;-74
2023/12/08 14:03:51;;;;;;;2.03;1.45;;;6.10;99.90;;;;;;5012156;28;20210;-74
2023/12/08 14:06:19;;;;;;;3.80;2.13;;;6.20;99.90;;;;;;5011754;28;20647;-74
2023/12/08 14:08:46;;;;;;;2.88;1.40;;;6.10;99.90;;;;;;5012643;28;20417;-75
2023/12/08 14:11:12;;;;;;;1.98;1.50;;;6.00;99.90;;;;;;5014386;28;20229;-74
2023/12/08 14:13:39;;;;;;;2.42;1.58;;;6.10;99.90;;;;;;5012958;28;20207;-74
2023/12/08 14:16:08;;;;;;;3.00;1.70;;;6.10;99.90;;;;;;5013322;28;20211;-74
2023/12/08 14:18:37;;;;;;;2.00;1.80;;;6.10;99.90;;;;;;5010580;28;20201;-75
2023/12/08 14:21:05;;;;;;;2.20;2.00;;;6.10;99.90;;;;;;5012155;28;20226;-75
2023/12/08 14:23:32;;;;;;;1.95;1.60;;;6.00;99.90;;;;;;5011227;28;20215;-74
2023/12/08 14:25:59;;;;;;;1.67;1.40;;;6.10;99.90;;;;;;5011677;28;20210;-75
2023/12/08 14:28:26;;;;;;;1.88;1.70;;;6.00;99.90;;;;;;5012191;28;20225;-75
2023/12/08 14:30:53;;;;;;;2.13;1.60;;;6.10;99.90;;;;;;5011889;28;20218;-75
2023/12/08 14:33:19;;;;;;;2.95;2.22;;;6.10;99.90;;;;;;5013098;28;20203;-73
2023/12/08 14:35:47;;;;;;;2.80;1.55;;;6.00;99.90;;;;;;5013280;28;20202;-72
2023/12/08 14:38:15;;;;;;;1.67;1.58;;;6.00;99.90;;;;;;5009240;28;20210;-73
2023/12/08 14:40:42;;;;;;;1.85;1.75;;;6.00;99.90;;;;;;5009670;28;20258;-72
2023/12/08 14:43:08;;;;;;;1.70;1.33;;;6.00;99.90;;;;;;5012309;28;20572;-72
2023/12/08 14:45:35;;;;;;;2.17;1.95;;;6.00;99.90;;;;;;5013416;28;20214;-73
2023/12/08 14:48:03;;;;;;;1.20;1.05;;;6.00;99.90;;;;;;5013091;28;20218;-75
2023/12/08 14:50:30;;;;;;;3.35;2.03;;;6.00;99.90;;;;;;5013296;28;20203;-74
2023/12/08 14:52:58;;;;;;;2.90;2.05;;;5.90;99.90;;;;;;5010565;28;20659;-74
2023/12/08 14:55:24;;;;;;;4.15;2.03;;;6.00;99.90;;;;;;5012009;28;20210;-71
2023/12/08 14:57:51;;;;;;;2.25;2.05;;;5.90;99.90;;;;;;5012023;28;20210;-70
2023/12/08 15:00:18;;;;;;;2.10;1.80;;;5.90;99.90;;;;;;5011614;28;20573;-72
2023/12/08 15:02:45;;;;;;;3.80;1.90;;;6.00;99.90;;;;;;5011558;28;20606;-72
2023/12/08 15:05:12;;;;;;;1.80;1.70;;;6.00;99.90;;;;;;5013220;28;20211;-71
2023/12/08 15:07:38;;;;;;;2.03;1.83;;;5.90;99.90;;;;;;5010337;28;20582;-73
2023/12/08 15:10:08;;;;;;;1.73;1.63;;;5.90;99.90;;;;;;5010939;28;20202;-73
2023/12/08 15:12:35;;;;;;;2.83;1.55;;;6.00;99.90;;;;;;5010645;28;20877;-71
2023/12/08 15:15:03;;;;;;;4.13;1.70;;;5.90;99.90;;;;;;5010886;28;20209;-73
2023/12/08 15:17:32;;;;;;;2.42;1.65;;;5.90;99.90;;;;;;5011981;28;20233;-74
2023/12/08 15:20:01;;;;;;;3.75;2.03;;;5.90;99.90;;;;;;5011508;28;20210;-73
2023/12/08 15:22:28;;;;;;;3.60;1.90;;;5.90;99.90;;;;;;5011242;28;20232;-73
2023/12/08 15:24:54;;;;;;;2.72;2.45;;;5.90;99.90;;;;;;5012192;28;20221;-73
2023/12/08 15:27:23;;;;;;;2.25;2.08;;;5.80;99.90;;;;;;5012657;28;20649;-74
2023/12/08 15:29:49;;;;;;;3.10;1.90;;;5.80;99.90;;;;;;5012030;28;20306;-73
2023/12/08 15:32:16;;;;;;;3.10;2.80;;;5.90;99.90;;;;;;5012460;28;20636;-74
2023/12/08 15:34:43;;;;;;;3.90;1.83;;;5.80;99.90;;;;;;5010825;28;20210;-74
2023/12/08 15:37:10;;;;;;;2.05;1.85;;;5.80;99.90;;;;;;5011009;28;20582;-74
2023/12/08 15:39:37;;;;;;;1.50;1.40;;;5.80;99.90;;;;;;5010797;28;20207;-74
2023/12/08 15:42:04;;;;;;;1.75;1.65;;;5.80;99.90;;;;;;5009047;28;20925;-75
2023/12/08 15:44:36;;;;;;;3.50;2.25;;;5.80;99.90;;;;;;5011126;28;20218;-75
2023/12/08 15:47:04;;;;;;;4.10;2.10;;;5.80;99.90;;;;;;5010165;28;20203;-74
2023/12/08 15:49:30;;;;;;;2.35;2.00;;;5.80;99.90;;;;;;5010446;28;20211;-73
2023/12/08 15:51:57;;;;;;;2.15;2.00;;;5.80;99.90;;;;;;5009683;28;20233;-74
2023/12/08 15:54:24;;;;;;;5.65;2.72;;;5.80;99.90;;;;;;5010675;28;20214;-74
2023/12/08 15:56:50;;;;;;;2.65;2.28;;;5.80;99.90;;;;;;5010124;28;20213;-74
2023/12/08 15:59:17;;;;;;;3.35;3.00;;;5.80;99.90;;;;;;5010354;28;20226;-74
2023/12/08 16:01:45;;;;;;;2.88;2.22;;;5.80;99.90;;;;;;5011188;28;20230;-71
2023/12/08 16:04:12;;;;;;;3.45;2.28;;;5.90;99.90;;;;;;5012158;28;20210;-72
2023/12/08 16:06:38;;;;;;;2.65;1.65;;;5.90;99.90;;;;;;5011189;28;20213;-74
2023/12/08 16:09:05;;;;;;;2.47;2.20;;;5.90;99.90;;;;;;5012075;28;20222;-73
2023/12/08 16:11:33;;;;;;;3.75;2.60;;;5.90;99.90;;;;;;5011376;28;20245;-75
2023/12/08 16:14:05;;;;;;;3.67;2.22;;;5.90;99.90;;;;;;5010805;28;20222;-73
2023/12/08 16:16:32;;;;;;;3.10;2.58;;;5.90;99.90;;;;;;5011065;28;20218;-74
2023/12/08 16:19:00;;;;;;;2.60;2.22;;;5.90;99.90;;;;;;5009910;28;20215;-72
2023/12/08 16:21:28;;;;;;;3.70;2.70;;;5.90;99.90;;;;;;5009067;28;20462;-70
2023/12/08 16:23:54;;;;;;;3.13;2.15;;;6.00;99.90;;;;;;5010451;28;20211;-75
2023/12/08 16:26:25;;;;;;;3.95;2.90;;;6.00;99.90;;;;;;5010304;28;20206;-75
2023/12/08 16:28:56;;;;;;;3.45;2.65;;;6.00;99.90;;;;;;5010043;28;20230;-75
2023/12/08 16:31:25;;;;;;;4.10;2.63;;;6.00;99.90;;;;;;5005042;28;20245;-74
2023/12/08 16:33:52;;;;;;;2.53;2.05;;;6.00;99.90;;;;;;5009673;28;20206;-71
2023/12/08 16:36:20;;;;;;;2.65;2.10;;;6.00;99.90;;;;;;5013293;28;20683;-72
2023/12/08 16:38:47;;;;;;;3.13;2.47;;;6.00;99.90;;;;;;5013345;28;20749;-72
2023/12/08 16:41:14;;;;;;;1.75;1.65;;;6.00;99.90;;;;;;5013889;28;20249;-71
2023/12/08 16:43:41;;;;;;;3.03;2.50;;;6.00;99.90;;;;;;5012253;28;20221;-71
2023/12/08 16:46:07;;;;;;;5.60;2.50;;;6.00;99.90;;;;;;5016765;28;20199;-70
2023/12/08 16:48:34;;;;;;;4.10;3.50;;;5.90;99.90;;;;;;5028474;28;20234;-71
2023/12/08 16:51:01;;;;;;;2.83;2.38;;;6.00;99.90;;;;;;5020785;28;20244;-72
2023/12/08 16:53:30;;;;;;;4.03;2.35;;;6.00;99.90;;;;;;5013999;28;20213;-71
2023/12/08 16:55:57;;;;;;;3.20;2.30;;;6.00;99.90;;;;;;5012935;28;20229;-71
2023/12/08 16:58:24;;;;;;;2.53;1.88;;;6.00;99.90;;;;;;5013161;28;20660;-72
2023/12/08 17:00:50;;;;;;;1.73;1.63;;;6.00;99.90;;;;;;5012659;28;20242;-71
2023/12/08 17:03:17;;;;;;;2.47;2.28;;;6.00;99.90;;;;;;5013121;28;20203;-71
2023/12/08 17:05:44;;;;;;;2.72;2.50;;;6.00;99.90;;;;;;5012925;28;20206;-71
2023/12/08 17:08:11;;;;;;;2.63;1.63;;;5.90;99.90;;;;;;5012548;28;20320;-71
2023/12/08 17:10:39;;;;;;;2.08;1.65;;;5.90;99.90;;;;;;5012899;28;20239;-70
2023/12/08 17:13:06;;;;;;;3.92;2.05;;;5.90;99.90;;;;;;5010672;28;20203;-71
2023/12/08 17:15:32;;;;;;;3.08;2.20;;;5.90;99.90;;;;;;5010121;28;20281;-70
2023/12/08 17:17:59;;;;;;;3.30;2.90;;;5.80;99.90;;;;;;5009503;28;20607;-71
2023/12/08 17:20:26;;;;;;;2.42;2.22;;;5.90;99.90;;;;;;5011987;28;20213;-70